createdAt,value
2023-05-18T00:00:14.198Z,100.00
2023-05-18T00:02:44.399Z,100.00
2023-05-18T00:05:13.213Z,100.00
2023-05-18T00:07:42.019Z,100.00
2023-05-18T00:10:12.163Z,100.00
2023-05-18T00:12:41.661Z,100.00
2023-05-18T00:15:11.434Z,100.00
2023-05-18T00:17:40.207Z,100.00
2023-05-18T00:20:11.075Z,100.00
2023-05-18T00:22:42.666Z,100.00
2023-05-18T00:25:11.673Z,100.00
2023-05-18T00:27:40.736Z,100.00
2023-05-18T00:30:10.219Z,100.00
2023-05-18T00:32:39.035Z,100.00
2023-05-18T00:35:10.166Z,100.00
2023-05-18T00:37:39.151Z,100.00
2023-05-18T00:40:09.251Z,100.00
2023-05-18T00:42:37.939Z,100.00
2023-05-18T00:45:08.278Z,100.00
2023-05-18T00:47:37.053Z,100.00
2023-05-18T00:50:06.765Z,100.00
2023-05-18T00:52:37.422Z,100.00
2023-05-18T00:55:07.524Z,100.00
2023-05-18T00:57:37.711Z,100.00
2023-05-18T01:00:10.817Z,100.00
2023-05-18T01:02:42.856Z,100.00
2023-05-18T01:05:12.327Z,100.00
2023-05-18T01:07:43.881Z,100.00
2023-05-18T01:10:16.206Z,100.00
2023-05-18T01:12:50.727Z,100.00
2023-05-18T01:15:24.644Z,100.00
2023-05-18T01:18:15.295Z,100.00
2023-05-18T01:20:50.707Z,100.00
2023-05-18T01:23:54.913Z,100.00
2023-05-18T01:26:31.620Z,100.00
2023-05-18T01:29:04.226Z,100.00
2023-05-18T01:31:33.754Z,100.00
2023-05-18T01:34:04.635Z,100.00
2023-05-18T01:36:33.775Z,100.00
2023-05-18T01:39:03.531Z,100.00
2023-05-18T01:41:40.633Z,100.00
2023-05-18T01:44:19.886Z,100.00
2023-05-18T01:46:58.351Z,100.00
2023-05-18T01:49:35.011Z,100.00
2023-05-18T01:52:09.284Z,100.00
2023-05-18T01:54:39.624Z,100.00
2023-05-18T01:57:10.913Z,100.00
2023-05-18T01:59:40.006Z,100.00
2023-05-18T02:02:09.376Z,100.00
2023-05-18T02:04:38.503Z,100.00
2023-05-18T02:07:07.429Z,100.00
2023-05-18T02:09:36.367Z,100.00
2023-05-18T02:12:05.890Z,100.00
2023-05-18T02:14:35.599Z,100.00
2023-05-18T02:17:04.396Z,100.00
2023-05-18T02:19:33.170Z,100.00
2023-05-18T02:22:01.772Z,100.00
2023-05-18T02:24:31.027Z,100.00
2023-05-18T02:26:59.644Z,100.00
2023-05-18T02:29:28.074Z,100.00
2023-05-18T02:31:59.210Z,100.00
2023-05-18T02:34:27.846Z,100.00
2023-05-18T02:37:04.070Z,100.00
2023-05-18T02:39:33.914Z,100.00
2023-05-18T02:42:02.952Z,100.00
2023-05-18T02:44:31.596Z,100.00
2023-05-18T02:47:01.746Z,100.00
2023-05-18T02:49:30.358Z,100.00
2023-05-18T02:51:58.964Z,100.00
2023-05-18T02:54:27.310Z,100.00
2023-05-18T02:56:57.017Z,100.00
2023-05-18T02:59:34.836Z,100.00
2023-05-18T03:02:05.063Z,100.00
2023-05-18T03:04:33.940Z,100.00
2023-05-18T03:07:02.905Z,100.00
2023-05-18T03:09:32.089Z,100.00
2023-05-18T03:12:01.295Z,100.00
2023-05-18T03:14:30.573Z,100.00
2023-05-18T03:16:59.460Z,100.00
2023-05-18T03:19:29.314Z,100.00
2023-05-18T03:21:58.943Z,100.00
2023-05-18T03:24:30.421Z,100.00
2023-05-18T03:27:00.964Z,100.00
2023-05-18T03:29:31.492Z,100.00
2023-05-18T03:32:01.462Z,100.00
2023-05-18T03:34:33.456Z,100.00
2023-05-18T03:37:02.105Z,100.00
2023-05-18T03:39:31.993Z,100.00
2023-05-18T03:42:02.040Z,100.00
2023-05-18T03:44:31.273Z,100.00
2023-05-18T03:47:00.049Z,100.00
2023-05-18T03:49:29.764Z,100.00
2023-05-18T03:51:59.900Z,100.00
2023-05-18T03:54:28.546Z,100.00
2023-05-18T03:56:57.239Z,100.00
2023-05-18T03:59:25.583Z,100.00
2023-05-18T04:01:54.437Z,100.00
2023-05-18T04:04:27.601Z,100.00
2023-05-18T04:06:56.658Z,100.00
2023-05-18T04:09:28.110Z,100.00
2023-05-18T04:11:56.833Z,100.00
2023-05-18T04:14:28.118Z,100.00
2023-05-18T04:16:58.427Z,100.00
2023-05-18T04:19:27.216Z,100.00
2023-05-18T04:21:55.970Z,100.00
2023-05-18T04:24:24.909Z,100.00
2023-05-18T04:26:56.144Z,100.00
2023-05-18T04:29:25.045Z,100.00
2023-05-18T04:31:59.947Z,100.00
2023-05-18T04:34:29.319Z,100.00
2023-05-18T04:36:58.706Z,100.00
2023-05-18T04:39:27.572Z,100.00
2023-05-18T04:41:59.058Z,100.00
2023-05-18T04:44:31.530Z,100.00
2023-05-18T04:47:02.704Z,100.00
2023-05-18T04:49:33.165Z,100.00
2023-05-18T04:52:01.798Z,100.00
2023-05-18T04:54:31.995Z,100.00
2023-05-18T04:57:03.664Z,100.00
2023-05-18T04:59:36.917Z,100.00
2023-05-18T05:02:06.622Z,100.00
2023-05-18T05:04:35.444Z,100.00
2023-05-18T05:07:04.189Z,100.00
2023-05-18T05:09:33.262Z,100.00
2023-05-18T05:12:03.610Z,100.00
2023-05-18T05:14:32.493Z,100.00
2023-05-18T05:17:01.293Z,100.00
2023-05-18T05:19:29.788Z,100.00
2023-05-18T05:21:58.560Z,100.00
2023-05-18T05:24:27.206Z,100.00
2023-05-18T05:26:55.875Z,100.00
2023-05-18T05:29:28.034Z,100.00
2023-05-18T05:31:56.679Z,99.96
2023-05-18T05:34:25.688Z,98.83
2023-05-18T05:36:54.826Z,100.00
2023-05-18T05:39:23.469Z,100.00
2023-05-18T05:41:52.365Z,98.65
2023-05-18T05:44:21.213Z,98.58
2023-05-18T05:46:52.004Z,98.19
2023-05-18T05:49:21.448Z,98.37
2023-05-18T05:51:50.385Z,96.57
2023-05-18T05:54:19.467Z,95.58
2023-05-18T05:56:48.163Z,95.35
2023-05-18T05:59:18.107Z,91.50
2023-05-18T06:01:47.236Z,87.45
2023-05-18T06:04:17.501Z,89.75
2023-05-18T06:06:47.813Z,84.87
2023-05-18T06:09:17.749Z,85.73
2023-05-18T06:11:46.827Z,82.10
2023-05-18T06:14:16.962Z,82.57
2023-05-18T06:16:46.496Z,82.20
2023-05-18T06:19:15.428Z,80.89
2023-05-18T06:21:45.663Z,77.49
2023-05-18T06:24:14.891Z,80.75
2023-05-18T06:26:57.314Z,75.79
2023-05-18T06:29:44.249Z,75.26
2023-05-18T06:32:31.883Z,77.71
2023-05-18T06:35:00.750Z,74.09
2023-05-18T06:37:30.837Z,71.65
2023-05-18T06:40:00.318Z,71.95
2023-05-18T06:42:29.087Z,70.68
2023-05-18T06:45:24.236Z,71.19
2023-05-18T06:47:55.744Z,68.93
2023-05-18T06:50:25.164Z,69.13
2023-05-18T06:52:55.614Z,68.41
2023-05-18T06:55:24.408Z,67.56
2023-05-18T06:57:56.821Z,67.20
2023-05-18T07:00:25.850Z,68.34
2023-05-18T07:02:54.706Z,66.13
2023-05-18T07:05:23.657Z,63.96
2023-05-18T07:07:52.455Z,63.57
2023-05-18T07:10:22.808Z,68.71
2023-05-18T07:12:51.515Z,72.90
2023-05-18T07:15:19.910Z,65.76
2023-05-18T07:17:48.635Z,63.71
2023-05-18T07:20:17.332Z,59.61
2023-05-18T07:22:46.002Z,64.05
2023-05-18T07:25:14.621Z,64.18
2023-05-18T07:27:44.366Z,71.60
2023-05-18T07:30:13.584Z,64.68
2023-05-18T07:32:45.216Z,63.14
2023-05-18T07:35:16.768Z,64.09
2023-05-18T07:37:46.027Z,64.90
2023-05-18T07:40:15.081Z,60.73
2023-05-18T07:42:46.964Z,57.52
2023-05-18T07:45:15.872Z,58.21
2023-05-18T07:47:44.587Z,56.97
2023-05-18T07:50:13.409Z,56.50
2023-05-18T07:52:42.320Z,59.20
2023-05-18T07:55:11.436Z,60.03
2023-05-18T07:57:40.888Z,55.82
2023-05-18T08:00:12.337Z,55.04
2023-05-18T08:02:41.352Z,53.36
2023-05-18T08:05:10.987Z,52.65
2023-05-18T08:07:39.768Z,53.33
2023-05-18T08:10:09.058Z,50.82
2023-05-18T08:12:38.380Z,52.11
2023-05-18T08:15:09.063Z,57.20
2023-05-18T08:17:38.911Z,54.59
2023-05-18T08:20:10.558Z,53.26
2023-05-18T08:22:39.273Z,51.28
2023-05-18T08:25:10.299Z,54.74
2023-05-18T08:27:39.073Z,55.55
2023-05-18T08:30:09.369Z,58.51
2023-05-18T08:32:39.043Z,52.28
2023-05-18T08:35:10.027Z,59.01
2023-05-18T08:37:39.735Z,50.18
2023-05-18T08:40:11.441Z,51.57
2023-05-18T08:42:50.703Z,50.61
2023-05-18T08:45:29.885Z,57.16
2023-05-18T08:48:02.180Z,53.12
2023-05-18T08:50:33.959Z,52.78
2023-05-18T08:53:06.130Z,53.31
2023-05-18T08:55:37.073Z,50.80
2023-05-18T08:58:08.411Z,51.41
2023-05-18T09:00:37.281Z,51.10
2023-05-18T09:03:08.240Z,55.89
2023-05-18T09:05:37.328Z,51.95
2023-05-18T09:08:08.652Z,57.64
2023-05-18T09:10:40.336Z,53.97
2023-05-18T09:13:11.043Z,47.46
2023-05-18T09:15:39.797Z,53.13
2023-05-18T09:18:10.130Z,44.82
2023-05-18T09:20:39.065Z,48.20
2023-05-18T09:23:07.757Z,49.12
2023-05-18T09:25:44.256Z,51.82
2023-05-18T09:28:14.622Z,48.21
2023-05-18T09:30:44.362Z,47.46
2023-05-18T09:33:21.939Z,47.99
2023-05-18T09:35:52.829Z,46.50
2023-05-18T09:38:23.664Z,49.23
2023-05-18T09:40:52.809Z,54.60
2023-05-18T09:43:21.846Z,49.77
2023-05-18T09:45:51.474Z,48.19
2023-05-18T09:48:25.177Z,52.20
2023-05-18T09:50:55.291Z,49.61
2023-05-18T09:53:23.975Z,54.26
2023-05-18T09:55:52.354Z,47.14
2023-05-18T09:58:21.173Z,52.36
2023-05-18T10:00:56.839Z,47.54
2023-05-18T10:03:26.879Z,47.28
2023-05-18T10:05:55.594Z,43.44
2023-05-18T10:08:24.287Z,43.34
2023-05-18T10:10:53.097Z,52.05
2023-05-18T10:13:21.713Z,44.56
2023-05-18T10:15:53.928Z,47.24
2023-05-18T10:18:26.861Z,48.76
2023-05-18T10:21:00.038Z,50.25
2023-05-18T10:23:33.608Z,48.83
2023-05-18T10:26:06.054Z,44.83
2023-05-18T10:28:42.437Z,43.15
2023-05-18T10:31:12.106Z,45.05
2023-05-18T10:33:42.813Z,46.26
2023-05-18T10:36:12.626Z,44.23
2023-05-18T10:38:45.381Z,43.11
2023-05-18T10:41:15.454Z,41.78
2023-05-18T10:43:45.514Z,47.29
2023-05-18T10:46:16.370Z,49.30
2023-05-18T10:48:52.462Z,42.90
2023-05-18T10:51:22.212Z,42.66
2023-05-18T10:53:51.600Z,41.21
2023-05-18T10:56:21.041Z,40.60
2023-05-18T10:58:49.816Z,44.97
2023-05-18T11:01:18.507Z,41.32
2023-05-18T11:03:51.041Z,38.17
2023-05-18T11:06:25.825Z,40.63
2023-05-18T11:08:54.560Z,40.61
2023-05-18T11:11:26.324Z,47.01
2023-05-18T11:13:55.132Z,44.25
2023-05-18T11:16:35.385Z,50.71
2023-05-18T11:19:11.353Z,41.03
2023-05-18T11:21:54.927Z,40.66
2023-05-18T11:24:32.299Z,42.90
2023-05-18T11:27:04.514Z,38.96
2023-05-18T11:29:36.879Z,38.71
2023-05-18T11:32:05.860Z,41.15
2023-05-18T11:34:47.804Z,41.70
2023-05-18T11:37:18.182Z,37.48
2023-05-18T11:40:00.327Z,38.88
2023-05-18T11:42:35.025Z,37.63
2023-05-18T11:45:09.178Z,43.95
2023-05-18T11:47:40.520Z,43.66
2023-05-18T11:50:12.972Z,46.23
2023-05-18T11:52:48.672Z,40.42
2023-05-18T11:55:21.783Z,40.73
2023-05-18T11:57:53.449Z,38.69
2023-05-18T12:00:23.021Z,40.11
2023-05-18T12:02:53.045Z,38.46
2023-05-18T12:05:23.340Z,41.03
2023-05-18T12:07:54.885Z,37.80
2023-05-18T12:10:24.970Z,38.79
2023-05-18T12:12:54.510Z,43.09
2023-05-18T12:15:25.011Z,49.07
2023-05-18T12:17:54.271Z,44.27
2023-05-18T12:20:26.749Z,47.56
2023-05-18T12:22:56.970Z,44.68
2023-05-18T12:25:27.340Z,42.36
2023-05-18T12:27:56.923Z,46.14
2023-05-18T12:30:35.054Z,49.48
2023-05-18T12:33:06.997Z,42.39
2023-05-18T12:35:37.219Z,48.52
2023-05-18T12:38:06.081Z,44.35
2023-05-18T12:40:44.806Z,44.92
2023-05-18T12:43:14.146Z,41.15
2023-05-18T12:45:46.068Z,42.35
2023-05-18T12:48:15.404Z,40.29
2023-05-18T12:50:50.701Z,41.24
2023-05-18T12:53:19.903Z,45.20
2023-05-18T12:55:58.794Z,46.77
2023-05-18T12:58:27.507Z,47.56
2023-05-18T13:00:56.173Z,50.51
2023-05-18T13:03:25.025Z,49.66
2023-05-18T13:06:06.819Z,47.54
2023-05-18T13:08:36.763Z,49.47
2023-05-18T13:11:13.725Z,52.37
2023-05-18T13:13:58.502Z,49.96
2023-05-18T13:16:29.718Z,45.25
2023-05-18T13:19:01.079Z,46.19
2023-05-18T13:21:31.227Z,43.84
2023-05-18T13:24:00.879Z,40.00
2023-05-18T13:26:29.488Z,39.62
2023-05-18T13:29:00.418Z,38.46
2023-05-18T13:31:30.298Z,39.94
2023-05-18T13:33:59.111Z,44.29
2023-05-18T13:36:29.660Z,42.54
2023-05-18T13:38:59.431Z,45.34
2023-05-18T13:41:28.360Z,45.83
2023-05-18T13:43:57.072Z,48.50
2023-05-18T13:46:25.921Z,51.05
2023-05-18T13:48:54.756Z,50.28
2023-05-18T13:51:23.386Z,50.18
2023-05-18T13:53:52.049Z,48.88
2023-05-18T13:56:22.468Z,46.49
2023-05-18T13:58:51.193Z,47.45
2023-05-18T14:01:21.614Z,48.51
2023-05-18T14:03:50.090Z,50.40
2023-05-18T14:06:20.825Z,51.82
2023-05-18T14:08:49.142Z,54.31
2023-05-18T14:11:17.777Z,52.76
2023-05-18T14:13:47.833Z,53.37
2023-05-18T14:16:16.585Z,53.99
2023-05-18T14:18:45.404Z,55.13
2023-05-18T14:21:14.231Z,54.72
2023-05-18T14:23:42.846Z,55.17
2023-05-18T14:26:11.601Z,52.66
2023-05-18T14:28:40.295Z,56.59
2023-05-18T14:31:10.396Z,55.68
2023-05-18T14:33:39.174Z,57.55
2023-05-18T14:36:08.312Z,52.35
2023-05-18T14:38:36.969Z,54.02
2023-05-18T14:41:05.853Z,59.52
2023-05-18T14:43:34.541Z,57.72
2023-05-18T14:48:36.137Z,59.08
2023-05-18T14:51:04.933Z,55.15
2023-05-18T14:53:33.961Z,53.73
2023-05-18T14:56:06.116Z,52.48
2023-05-18T14:58:34.609Z,51.83
2023-05-18T15:01:03.895Z,52.54
2023-05-18T15:03:32.683Z,55.49
2023-05-18T15:06:02.854Z,57.23
2023-05-18T15:08:31.430Z,57.15
2023-05-18T15:11:00.355Z,56.71
2023-05-18T15:13:29.034Z,60.92
2023-05-18T15:15:57.806Z,60.56
2023-05-18T15:18:27.030Z,58.25
2023-05-18T15:20:55.401Z,58.61
2023-05-18T15:23:26.290Z,60.19
2023-05-18T15:25:55.132Z,60.66
2023-05-18T15:28:23.805Z,63.97
2023-05-18T15:30:54.193Z,62.46
2023-05-18T15:33:22.838Z,58.59
2023-05-18T15:35:51.464Z,58.13
2023-05-18T15:38:20.149Z,61.45
2023-05-18T15:40:50.466Z,58.20
2023-05-18T15:43:20.227Z,59.10
2023-05-18T15:45:48.984Z,60.10
2023-05-18T15:48:17.692Z,61.23
2023-05-18T15:50:46.427Z,60.85
2023-05-18T15:53:15.903Z,65.97
2023-05-18T15:55:44.676Z,60.60
2023-05-18T15:58:14.819Z,60.55
2023-05-18T16:00:43.542Z,61.70
2023-05-18T16:03:12.561Z,59.25
2023-05-18T16:05:41.778Z,60.02
2023-05-18T16:08:10.486Z,60.48
2023-05-18T16:10:39.223Z,59.42
2023-05-18T16:13:08.024Z,60.23
2023-05-18T16:15:38.509Z,62.12
2023-05-18T16:18:07.593Z,59.35
2023-05-18T16:20:36.454Z,61.17
2023-05-18T16:23:04.798Z,63.25
2023-05-18T16:25:33.907Z,60.89
2023-05-18T16:28:02.605Z,63.28
2023-05-18T16:30:31.359Z,62.85
2023-05-18T16:33:01.182Z,62.78
2023-05-18T16:35:31.976Z,62.03
2023-05-18T16:38:01.203Z,61.37
2023-05-18T16:40:29.935Z,61.78
2023-05-18T16:42:58.913Z,64.99
2023-05-18T16:45:28.079Z,63.58
2023-05-18T16:47:56.851Z,62.79
2023-05-18T16:50:27.954Z,63.08
2023-05-18T16:52:56.686Z,62.68
2023-05-18T16:55:25.257Z,62.25
2023-05-18T16:57:54.218Z,63.93
2023-05-18T17:00:23.498Z,62.99
2023-05-18T17:02:52.781Z,62.83
2023-05-18T17:05:23.042Z,66.50
2023-05-18T17:07:53.909Z,62.99
2023-05-18T17:10:22.618Z,64.13
2023-05-18T17:12:51.772Z,63.89
2023-05-18T17:15:20.316Z,67.81
2023-05-18T17:17:48.686Z,66.61
2023-05-18T17:20:17.397Z,65.18
2023-05-18T17:22:46.632Z,69.41
2023-05-18T17:25:16.332Z,68.63
2023-05-18T17:27:46.347Z,65.51
2023-05-18T17:30:15.287Z,68.16
2023-05-18T17:32:45.485Z,68.06
2023-05-18T17:35:14.576Z,67.62
2023-05-18T17:37:43.015Z,68.37
2023-05-18T17:40:12.462Z,70.10
2023-05-18T17:42:42.548Z,67.02
2023-05-18T17:45:12.059Z,67.48
2023-05-18T17:47:41.735Z,70.04
2023-05-18T17:50:11.087Z,68.43
2023-05-18T17:52:39.813Z,70.19
2023-05-18T17:55:10.400Z,71.55
2023-05-18T17:57:45.278Z,70.61
2023-05-18T18:00:17.599Z,74.71
2023-05-18T18:02:46.362Z,72.49
2023-05-18T18:05:15.003Z,71.45
2023-05-18T18:07:43.690Z,72.71
2023-05-18T18:10:12.691Z,74.65
2023-05-18T18:12:41.278Z,75.20
2023-05-18T18:15:11.482Z,72.51
2023-05-18T18:17:41.355Z,74.82
2023-05-18T18:20:10.787Z,73.70
2023-05-18T18:22:39.192Z,73.43
2023-05-18T18:25:08.225Z,74.74
2023-05-18T18:27:38.830Z,75.03
2023-05-18T18:30:08.853Z,75.23
2023-05-18T18:32:37.772Z,75.84
2023-05-18T18:35:09.093Z,78.20
2023-05-18T18:37:38.519Z,79.00
2023-05-18T18:40:09.230Z,80.20
2023-05-18T18:42:37.892Z,81.03
2023-05-18T18:45:07.589Z,82.03
2023-05-18T18:47:36.321Z,83.09
2023-05-18T18:50:05.348Z,82.84
2023-05-18T18:52:35.421Z,85.73
2023-05-18T18:55:04.883Z,85.22
2023-05-18T18:57:34.333Z,83.73
2023-05-18T19:00:03.068Z,83.03
2023-05-18T19:02:31.774Z,84.79
2023-05-18T19:05:00.669Z,86.67
2023-05-18T19:07:29.401Z,88.73
2023-05-18T19:09:59.513Z,90.83
2023-05-18T19:12:28.479Z,89.15
2023-05-18T19:14:57.083Z,87.12
2023-05-18T19:17:26.791Z,87.03
2023-05-18T19:19:56.138Z,90.51
2023-05-18T19:22:24.724Z,95.04
2023-05-18T19:24:53.415Z,94.11
2023-05-18T19:27:23.355Z,93.55
2023-05-18T19:29:52.068Z,95.14
2023-05-18T19:32:21.037Z,88.20
2023-05-18T19:34:50.665Z,85.21
2023-05-18T19:37:19.330Z,84.33
2023-05-18T19:39:47.947Z,82.95
2023-05-18T19:42:16.555Z,84.35
2023-05-18T19:44:46.342Z,81.69
2023-05-18T19:47:14.938Z,82.88
2023-05-18T19:49:43.652Z,83.46
2023-05-18T19:52:12.060Z,84.85
2023-05-18T19:54:40.695Z,82.75
2023-05-18T19:57:09.306Z,82.77
2023-05-18T19:59:38.695Z,82.71
2023-05-18T20:02:08.306Z,83.69
2023-05-18T20:04:36.922Z,85.75
2023-05-18T20:07:05.886Z,81.08
2023-05-18T20:09:34.618Z,81.12
2023-05-18T20:12:03.569Z,80.43
2023-05-18T20:14:33.386Z,78.42
2023-05-18T20:17:02.166Z,79.22
2023-05-18T20:19:37.774Z,79.91
2023-05-18T20:22:09.131Z,77.19
2023-05-18T20:24:38.657Z,76.08
2023-05-18T20:27:08.217Z,79.76
2023-05-18T20:29:36.936Z,80.60
2023-05-18T20:32:06.752Z,82.83
2023-05-18T20:34:36.791Z,81.96
2023-05-18T20:37:08.492Z,82.45
2023-05-18T20:39:40.770Z,83.68
2023-05-18T20:42:12.788Z,84.69
2023-05-18T20:44:42.523Z,87.53
2023-05-18T20:47:14.414Z,87.76
2023-05-18T20:49:44.104Z,88.29
2023-05-18T20:52:15.154Z,88.42
2023-05-18T20:54:44.394Z,90.27
2023-05-18T20:57:13.033Z,90.92
2023-05-18T20:59:41.881Z,89.70
2023-05-18T21:02:10.697Z,89.95
2023-05-18T21:04:39.073Z,90.58
2023-05-18T21:07:10.016Z,90.49
2023-05-18T21:09:38.688Z,90.48
2023-05-18T21:12:08.056Z,89.14
2023-05-18T21:14:37.849Z,89.38
2023-05-18T21:17:07.356Z,89.89
2023-05-18T21:19:36.164Z,91.87
2023-05-18T21:22:04.623Z,91.64
2023-05-18T21:24:34.737Z,94.16
2023-05-18T21:27:04.314Z,96.25
2023-05-18T21:29:32.976Z,96.32
2023-05-18T21:32:01.690Z,97.73
2023-05-18T21:34:30.727Z,100.00
2023-05-18T21:36:59.416Z,98.72
2023-05-18T21:39:28.041Z,97.88
2023-05-18T21:41:58.661Z,97.32
2023-05-18T21:44:27.311Z,96.52
2023-05-18T21:46:57.912Z,94.26
2023-05-18T21:49:26.782Z,96.13
2023-05-18T21:51:56.174Z,94.70
2023-05-18T21:54:26.427Z,96.06
2023-05-18T21:56:55.100Z,93.98
2023-05-18T21:59:24.886Z,92.92
2023-05-18T22:01:53.562Z,92.41
2023-05-18T22:04:22.251Z,92.10
2023-05-18T22:06:50.780Z,93.66
2023-05-18T22:09:19.635Z,95.31
2023-05-18T22:11:48.262Z,94.24
2023-05-18T22:14:18.137Z,94.78
2023-05-18T22:16:48.265Z,98.51
2023-05-18T22:19:16.770Z,96.98
2023-05-18T22:21:45.399Z,97.00
2023-05-18T22:24:14.027Z,97.27
2023-05-18T22:26:46.240Z,96.55
2023-05-18T22:29:14.910Z,96.05
2023-05-18T22:31:43.614Z,96.71
2023-05-18T22:34:13.418Z,96.47
2023-05-18T22:36:42.018Z,96.32
2023-05-18T22:39:11.013Z,97.06
2023-05-18T22:41:39.719Z,99.16
2023-05-18T22:44:08.326Z,98.29
2023-05-18T22:46:38.852Z,98.35
2023-05-18T22:49:08.050Z,100.00
2023-05-18T22:51:38.084Z,99.41
2023-05-18T22:54:06.723Z,100.00
2023-05-18T22:56:35.748Z,100.00
2023-05-18T22:59:06.966Z,99.65
2023-05-18T23:01:37.846Z,100.00
2023-05-18T23:04:07.004Z,100.00
2023-05-18T23:06:37.045Z,100.00
2023-05-18T23:09:06.074Z,100.00
2023-05-18T23:11:35.299Z,99.84
2023-05-18T23:14:04.126Z,100.00
2023-05-18T23:16:32.874Z,100.00
2023-05-18T23:19:02.142Z,100.00
2023-05-18T23:21:31.402Z,100.00
2023-05-18T23:24:01.260Z,100.00
2023-05-18T23:26:29.583Z,100.00
2023-05-18T23:28:58.256Z,100.00
2023-05-18T23:31:27.118Z,100.00
2023-05-18T23:33:56.558Z,100.00
2023-05-18T23:36:27.300Z,99.53
2023-05-18T23:38:59.086Z,99.55
2023-05-18T23:41:31.600Z,100.00
2023-05-18T23:44:01.071Z,100.00
2023-05-18T23:46:31.302Z,100.00
2023-05-18T23:49:00.508Z,100.00
2023-05-18T23:51:35.797Z,100.00
2023-05-18T23:54:07.345Z,100.00
2023-05-18T23:56:39.042Z,100.00
2023-05-18T23:59:09.437Z,100.00
